Time;durP1;ratioP1;P1;durP2;ratioP2;P2;SDS_P1;SDS_P2;PMS_P1;PMS_P2;Temp;Humidity;BMP_temperature;BMP_pressure;BME280_temperature;BME280_humidity;BME280_pressure;Samples;Min_cycle;Max_cycle;Signal;HPM_P1;HPM_P2
2021/06/22 00:00:08;;;;;;;4.00;1.48;;;18.90;82.00;;;;;;5032911;28;20109;-84
2021/06/22 00:02:34;;;;;;;2.85;1.55;;;19.00;81.40;;;;;;5032972;28;20462;-84
2021/06/22 00:05:00;;;;;;;2.78;1.42;;;19.20;81.00;;;;;;5034067;28;20108;-83
2021/06/22 00:07:25;;;;;;;4.88;1.65;;;19.30;80.70;;;;;;5032483;28;20026;-83
2021/06/22 00:09:51;;;;;;;2.65;1.40;;;19.40;80.40;;;;;;5033957;28;20057;-83
2021/06/22 00:12:16;;;;;;;4.18;1.60;;;19.60;80.20;;;;;;5032715;28;20477;-84
2021/06/22 00:14:42;;;;;;;4.18;1.75;;;19.60;80.10;;;;;;5032413;28;20025;-83
2021/06/22 00:17:08;;;;;;;3.95;1.98;;;19.70;80.00;;;;;;5033866;28;20183;-81
2021/06/22 00:19:33;;;;;;;4.85;1.52;;;19.70;79.50;;;;;;5033705;28;20044;-83
2021/06/22 00:21:59;;;;;;;5.03;1.83;;;19.80;79.00;;;;;;5033777;28;20424;-83
2021/06/22 00:24:25;;;;;;;3.75;1.60;;;19.70;78.90;;;;;;5033672;28;20026;-82
2021/06/22 00:26:50;;;;;;;2.25;1.40;;;19.60;78.70;;;;;;5033761;28;20028;-81
2021/06/22 00:29:16;;;;;;;6.32;1.70;;;19.60;78.70;;;;;;5033547;28;20061;-82
2021/06/22 00:31:42;;;;;;;2.75;1.58;;;19.50;79.30;;;;;;5049065;28;20045;-82
2021/06/22 00:34:08;;;;;;;4.65;1.70;;;19.50;79.90;;;;;;5033648;28;20022;-81
2021/06/22 00:36:33;;;;;;;2.30;1.63;;;19.50;79.50;;;;;;5037119;28;20536;-80
2021/06/22 00:38:59;;;;;;;3.72;1.60;;;19.50;79.60;;;;;;5058017;28;20022;-81
2021/06/22 00:41:24;;;;;;;3.95;1.73;;;19.50;79.40;;;;;;5032465;28;20041;-83
2021/06/22 00:43:50;;;;;;;3.63;2.05;;;19.50;79.60;;;;;;5032889;28;20065;-83
2021/06/22 00:46:16;;;;;;;5.22;1.90;;;19.50;79.10;;;;;;5037028;28;20045;-82
2021/06/22 00:48:41;;;;;;;2.55;1.45;;;19.50;79.50;;;;;;5046264;28;20029;-84
2021/06/22 00:51:07;;;;;;;3.50;1.60;;;19.60;79.40;;;;;;5057573;28;20022;-81
2021/06/22 00:53:34;;;;;;;3.72;1.45;;;19.70;79.30;;;;;;5074163;28;20018;-83
2021/06/22 00:56:00;;;;;;;4.45;1.80;;;19.80;79.20;;;;;;5050592;28;20026;-84
2021/06/22 00:58:25;;;;;;;5.07;1.85;;;19.80;79.10;;;;;;5040794;28;20061;-83
2021/06/22 01:00:51;;;;;;;3.80;2.05;;;19.80;79.40;;;;;;5033577;28;20017;-84
2021/06/22 01:03:17;;;;;;;3.00;1.33;;;19.80;79.40;;;;;;5033373;28;20111;-83
2021/06/22 01:05:43;;;;;;;3.08;2.10;;;19.70;79.50;;;;;;5040397;28;20056;-83
2021/06/22 01:08:11;;;;;;;6.07;2.20;;;19.70;80.00;;;;;;5042864;28;20030;-83
2021/06/22 01:10:37;;;;;;;1.40;1.30;;;19.70;80.20;;;;;;5042094;28;20033;-83
2021/06/22 01:13:02;;;;;;;3.30;1.80;;;19.70;80.40;;;;;;5042763;28;20029;-83
2021/06/22 01:15:30;;;;;;;3.45;1.75;;;19.70;80.40;;;;;;5058782;28;20057;-82
2021/06/22 01:17:58;;;;;;;3.42;1.33;;;19.60;80.40;;;;;;5059934;28;20024;-81
2021/06/22 01:20:29;;;;;;;2.95;1.70;;;19.60;80.60;;;;;;5042709;28;20128;-83
2021/06/22 01:22:55;;;;;;;3.25;1.60;;;19.70;80.70;;;;;;5042755;28;20117;-82
2021/06/22 01:25:21;;;;;;;7.13;1.50;;;19.70;80.50;;;;;;5044624;28;20017;-81
2021/06/22 01:27:46;;;;;;;3.13;1.70;;;19.70;80.50;;;;;;5046969;28;20056;-82
2021/06/22 01:30:13;;;;;;;4.28;1.88;;;19.70;80.30;;;;;;5043750;28;20029;-83
2021/06/22 01:32:39;;;;;;;4.07;1.48;;;19.70;79.90;;;;;;5034465;28;20037;-83
2021/06/22 01:35:05;;;;;;;3.10;1.20;;;19.70;79.40;;;;;;5032790;28;20028;-82
2021/06/22 01:37:31;;;;;;;5.82;1.70;;;19.60;77.10;;;;;;5047734;28;20026;-81
2021/06/22 01:40:00;;;;;;;5.18;1.80;;;19.60;78.00;;;;;;5047796;28;20504;-82
2021/06/22 01:42:26;;;;;;;9.07;2.10;;;19.60;78.60;;;;;;5031357;28;20508;-83
2021/06/22 01:44:54;;;;;;;2.88;1.70;;;19.60;79.10;;;;;;5032538;28;20030;-83
2021/06/22 01:47:19;;;;;;;6.70;1.90;;;19.60;79.10;;;;;;5031205;28;20035;-84
2021/06/22 01:49:45;;;;;;;7.65;1.95;;;19.70;79.30;;;;;;5047796;28;20400;-82
2021/06/22 01:52:16;;;;;;;6.88;1.73;;;19.70;79.20;;;;;;5031231;28;20080;-84
2021/06/22 01:54:41;;;;;;;6.28;1.90;;;19.80;78.90;;;;;;5031190;28;20025;-84
2021/06/22 01:57:07;;;;;;;4.63;1.80;;;19.80;78.80;;;;;;5047733;28;20099;-84
2021/06/22 01:59:33;;;;;;;4.68;1.80;;;19.80;78.90;;;;;;5031105;28;20021;-85
2021/06/22 02:01:58;;;;;;;7.40;2.30;;;19.70;78.90;;;;;;5031131;28;20026;-85
2021/06/22 02:04:24;;;;;;;3.92;2.00;;;19.70;77.90;;;;;;5047576;28;20477;-85
2021/06/22 02:06:50;;;;;;;3.85;2.30;;;19.40;78.50;;;;;;5031299;28;20025;-85
2021/06/22 02:09:15;;;;;;;5.95;2.05;;;19.20;80.20;;;;;;5031101;28;20030;-86
2021/06/22 02:11:41;;;;;;;7.30;2.10;;;19.20;79.90;;;;;;5036319;28;20034;-86
2021/06/22 02:14:07;;;;;;;3.83;2.10;;;19.10;79.60;;;;;;5035047;28;20036;-85
2021/06/22 02:16:33;;;;;;;3.20;1.60;;;19.10;79.70;;;;;;5036149;28;20555;-85
2021/06/22 02:18:59;;;;;;;3.50;1.70;;;19.10;80.30;;;;;;5034960;28;20131;-85
2021/06/22 02:21:25;;;;;;;3.00;1.88;;;19.20;80.40;;;;;;5035941;28;20018;-85
2021/06/22 02:23:51;;;;;;;4.82;1.80;;;19.20;80.50;;;;;;5034890;28;20033;-86
2021/06/22 02:26:16;;;;;;;4.00;1.50;;;19.20;80.70;;;;;;5034742;28;20021;-86
2021/06/22 02:28:42;;;;;;;3.72;1.77;;;19.20;80.90;;;;;;5036225;28;20022;-86
2021/06/22 02:31:08;;;;;;;4.28;1.95;;;19.20;80.90;;;;;;5034697;28;20067;-86
2021/06/22 02:33:33;;;;;;;3.20;1.75;;;19.20;81.00;;;;;;5035605;28;20169;-85
2021/06/22 02:35:59;;;;;;;2.35;1.45;;;19.10;81.30;;;;;;5034917;28;20057;-85
2021/06/22 02:38:25;;;;;;;3.85;1.58;;;19.10;81.50;;;;;;5034449;28;20087;-85
2021/06/22 02:40:50;;;;;;;4.28;1.77;;;19.10;81.70;;;;;;5034232;28;20095;-83
2021/06/22 02:43:16;;;;;;;4.72;2.05;;;19.10;81.40;;;;;;5035654;28;20056;-83
2021/06/22 02:45:42;;;;;;;5.47;2.22;;;19.10;81.50;;;;;;5035774;28;20065;-83
2021/06/22 02:48:10;;;;;;;2.45;1.80;;;19.10;81.20;;;;;;5051027;28;20079;-82
2021/06/22 02:50:36;;;;;;;3.00;2.05;;;19.00;81.30;;;;;;5034055;28;20128;-80
2021/06/22 02:53:02;;;;;;;5.50;2.28;;;18.90;82.00;;;;;;5051602;28;20022;-83
2021/06/22 02:55:28;;;;;;;5.43;2.45;;;18.80;82.30;;;;;;5036534;28;20029;-84
2021/06/22 02:57:56;;;;;;;5.03;1.98;;;18.90;82.00;;;;;;5036596;28;20025;-84
2021/06/22 03:00:25;;;;;;;4.20;2.20;;;18.80;81.40;;;;;;5036595;28;20223;-84
2021/06/22 03:02:51;;;;;;;4.68;1.85;;;18.80;81.80;;;;;;5035291;28;20029;-83
2021/06/22 03:05:18;;;;;;;5.00;2.33;;;18.80;82.30;;;;;;5034580;28;20397;-83
2021/06/22 03:07:44;;;;;;;5.80;1.90;;;18.70;82.10;;;;;;5034866;28;20461;-84
2021/06/22 03:10:12;;;;;;;3.78;1.98;;;18.80;82.10;;;;;;5035843;28;20112;-84
2021/06/22 03:12:39;;;;;;;4.15;2.05;;;18.80;81.90;;;;;;5035074;28;20029;-84
2021/06/22 03:15:06;;;;;;;5.95;2.03;;;18.70;81.80;;;;;;5036676;28;20025;-84
2021/06/22 03:17:32;;;;;;;3.78;1.80;;;18.70;82.10;;;;;;5052901;28;20031;-83
2021/06/22 03:19:58;;;;;;;7.03;2.20;;;18.70;82.30;;;;;;5056359;28;20030;-83
2021/06/22 03:22:23;;;;;;;2.60;1.92;;;18.80;82.30;;;;;;5059448;28;20032;-84
2021/06/22 03:24:49;;;;;;;4.68;1.95;;;18.90;82.30;;;;;;5051327;28;20029;-83
2021/06/22 03:27:15;;;;;;;3.05;1.80;;;18.90;81.90;;;;;;5047947;28;20026;-84
2021/06/22 03:29:40;;;;;;;3.60;1.83;;;19.00;82.00;;;;;;5038182;28;20028;-84
2021/06/22 03:32:07;;;;;;;3.33;1.75;;;19.00;82.00;;;;;;5053280;28;20512;-84
2021/06/22 03:34:32;;;;;;;3.15;1.80;;;19.00;81.70;;;;;;5034786;28;20470;-83
2021/06/22 03:36:58;;;;;;;5.60;1.75;;;19.10;81.30;;;;;;5037279;28;20029;-85
2021/06/22 03:39:23;;;;;;;4.13;1.67;;;19.10;80.80;;;;;;5037737;28;20034;-85
2021/06/22 03:41:49;;;;;;;3.80;1.48;;;19.10;80.70;;;;;;5034160;28;20033;-85
2021/06/22 03:44:15;;;;;;;4.22;1.45;;;19.10;80.80;;;;;;5033927;28;20381;-85
2021/06/22 03:46:44;;;;;;;3.70;1.83;;;19.20;80.50;;;;;;5033599;28;20048;-86
2021/06/22 03:49:09;;;;;;;4.50;2.08;;;19.10;80.70;;;;;;5033635;28;20108;-85
2021/06/22 03:51:36;;;;;;;4.95;2.10;;;19.10;80.80;;;;;;5034156;28;20168;-85
2021/06/22 03:54:02;;;;;;;2.58;1.55;;;19.10;80.90;;;;;;5033342;28;20469;-85
2021/06/22 03:56:28;;;;;;;5.40;1.80;;;18.90;80.80;;;;;;5033230;28;20025;-85
2021/06/22 03:58:54;;;;;;;4.43;1.67;;;18.90;81.30;;;;;;5033044;28;20135;-85
2021/06/22 04:01:20;;;;;;;5.05;1.50;;;18.80;81.30;;;;;;5034325;28;20025;-87
2021/06/22 04:03:46;;;;;;;2.45;1.20;;;18.80;81.10;;;;;;5038596;28;20036;-85
2021/06/22 04:06:12;;;;;;;4.53;1.50;;;18.80;80.40;;;;;;5033182;28;20026;-85
2021/06/22 04:08:39;;;;;;;6.75;2.08;;;18.90;80.20;;;;;;5036228;28;20487;-84
2021/06/22 04:11:05;;;;;;;3.42;1.67;;;18.90;79.90;;;;;;5037952;28;20125;-81
2021/06/22 04:13:31;;;;;;;8.10;1.65;;;18.90;79.60;;;;;;5047374;28;20034;-82
2021/06/22 04:15:56;;;;;;;2.25;1.50;;;18.90;79.40;;;;;;5058560;28;20040;-82
2021/06/22 04:18:22;;;;;;;3.30;1.50;;;18.90;79.40;;;;;;5050806;28;20466;-82
2021/06/22 04:20:48;;;;;;;2.15;1.30;;;18.90;79.50;;;;;;5049113;28;20495;-81
2021/06/22 04:23:14;;;;;;;6.55;1.88;;;18.90;79.80;;;;;;5033792;28;20071;-82
2021/06/22 04:25:40;;;;;;;3.63;1.42;;;19.00;79.90;;;;;;5033737;28;20029;-82
2021/06/22 04:28:06;;;;;;;2.70;1.48;;;19.10;79.70;;;;;;5033714;28;20018;-82
2021/06/22 04:30:33;;;;;;;4.45;1.85;;;19.10;79.70;;;;;;5032250;28;20083;-82
2021/06/22 04:32:59;;;;;;;5.65;1.60;;;19.00;79.40;;;;;;5033114;28;20028;-82
2021/06/22 04:35:27;;;;;;;5.25;1.67;;;19.00;79.60;;;;;;5032265;28;20079;-82
2021/06/22 04:37:53;;;;;;;3.03;1.27;;;19.10;79.80;;;;;;5033337;28;20401;-81
2021/06/22 04:40:18;;;;;;;2.60;1.55;;;19.10;80.00;;;;;;5033143;28;20049;-82
2021/06/22 04:42:44;;;;;;;5.07;2.17;;;19.10;80.00;;;;;;5032408;28;20026;-82
2021/06/22 04:45:11;;;;;;;3.00;1.55;;;19.20;80.10;;;;;;5033937;28;20164;-83
2021/06/22 04:47:37;;;;;;;4.35;1.63;;;19.10;80.00;;;;;;5032750;28;20032;-83
2021/06/22 04:50:04;;;;;;;4.43;1.45;;;19.20;79.80;;;;;;5049290;28;20120;-83
2021/06/22 04:52:29;;;;;;;5.15;1.55;;;19.10;79.50;;;;;;5032592;28;20025;-83
2021/06/22 04:54:55;;;;;;;2.72;1.30;;;19.20;79.20;;;;;;5049867;28;20017;-84
2021/06/22 04:57:20;;;;;;;6.22;1.50;;;19.30;79.00;;;;;;5033008;28;20473;-81
2021/06/22 04:59:46;;;;;;;4.80;1.50;;;19.30;78.30;;;;;;5035765;28;20017;-82
2021/06/22 05:02:12;;;;;;;6.50;1.65;;;19.30;78.30;;;;;;5038177;28;20021;-81
2021/06/22 05:04:38;;;;;;;3.63;1.50;;;19.30;78.70;;;;;;5033563;28;20026;-82
2021/06/22 05:07:04;;;;;;;2.85;1.30;;;19.30;78.60;;;;;;5033437;28;20028;-83
2021/06/22 05:09:29;;;;;;;5.00;1.92;;;19.40;78.40;;;;;;5033395;28;20022;-83
2021/06/22 05:11:55;;;;;;;4.65;1.55;;;19.60;78.10;;;;;;5033422;28;20037;-83
2021/06/22 05:14:21;;;;;;;7.30;1.63;;;19.70;77.50;;;;;;5033255;28;20018;-83
2021/06/22 05:16:50;;;;;;;7.57;1.75;;;19.80;76.90;;;;;;5031948;28;20032;-83
2021/06/22 05:19:16;;;;;;;6.43;1.42;;;19.90;76.40;;;;;;5032076;28;20021;-82
2021/06/22 05:21:42;;;;;;;4.40;1.67;;;20.00;76.40;;;;;;5048599;28;20377;-83
2021/06/22 05:24:09;;;;;;;3.10;1.50;;;20.10;76.20;;;;;;5032981;28;20366;-81
2021/06/22 05:26:35;;;;;;;3.08;2.00;;;20.10;75.70;;;;;;5032834;28;20028;-82
2021/06/22 05:29:00;;;;;;;5.53;1.35;;;20.20;75.40;;;;;;5031510;28;20029;-83
2021/06/22 05:31:26;;;;;;;4.82;1.55;;;20.30;75.00;;;;;;5031243;28;20132;-82
2021/06/22 05:33:52;;;;;;;2.67;1.40;;;20.50;74.40;;;;;;5048232;28;20103;-82
2021/06/22 05:36:17;;;;;;;3.70;1.88;;;20.70;73.70;;;;;;5031667;28;20032;-83
2021/06/22 05:38:43;;;;;;;5.93;1.40;;;20.90;72.90;;;;;;5031387;28;20028;-81
2021/06/22 05:41:08;;;;;;;4.22;1.10;;;21.10;72.20;;;;;;5031391;28;20076;-82
2021/06/22 05:43:34;;;;;;;4.22;1.30;;;21.30;71.60;;;;;;5031926;28;20037;-83
2021/06/22 05:46:00;;;;;;;4.63;1.58;;;21.50;70.70;;;;;;5023809;28;20236;-81
2021/06/22 05:48:26;;;;;;;3.35;1.00;;;21.60;69.30;;;;;;5025608;28;20029;-82
2021/06/22 05:50:51;;;;;;;3.50;1.02;;;21.60;68.30;;;;;;5030819;28;20104;-82
2021/06/22 05:53:17;;;;;;;4.18;1.10;;;21.50;68.50;;;;;;5036913;28;20034;-81
2021/06/22 05:55:43;;;;;;;12.30;1.90;;;21.50;68.80;;;;;;5036936;28;20096;-84
2021/06/22 05:58:08;;;;;;;5.07;2.30;;;21.40;69.30;;;;;;5052652;28;20055;-83
2021/06/22 06:00:34;;;;;;;3.75;2.13;;;21.40;70.40;;;;;;5038159;28;20026;-84
2021/06/22 06:03:00;;;;;;;6.25;3.10;;;21.30;72.90;;;;;;5037072;28;20079;-84
2021/06/22 06:05:25;;;;;;;6.30;2.20;;;21.10;73.10;;;;;;5036527;28;20017;-84
2021/06/22 06:07:52;;;;;;;6.22;2.90;;;21.10;73.10;;;;;;5035318;28;20120;-84
2021/06/22 06:10:19;;;;;;;7.13;3.15;;;21.10;73.10;;;;;;5036473;28;20026;-83
2021/06/22 06:12:45;;;;;;;2.40;1.80;;;21.10;73.20;;;;;;5042113;28;20028;-84
2021/06/22 06:15:11;;;;;;;10.60;2.60;;;21.00;73.40;;;;;;5052318;28;20038;-84
2021/06/22 06:17:37;;;;;;;5.95;2.20;;;21.00;73.30;;;;;;5034908;28;20040;-84
2021/06/22 06:20:06;;;;;;;7.93;2.03;;;21.00;73.20;;;;;;5035040;28;20626;-84
2021/06/22 06:22:32;;;;;;;4.07;2.45;;;21.00;73.80;;;;;;5035097;28;20049;-83
2021/06/22 06:25:01;;;;;;;5.65;2.67;;;20.90;74.60;;;;;;5035074;28;20448;-83
2021/06/22 06:27:38;;;;;;;9.00;2.40;;;20.70;74.60;;;;;;5051409;28;20021;-83
2021/06/22 06:30:10;;;;;;;6.80;2.60;;;20.60;74.80;;;;;;5034686;28;20021;-84
2021/06/22 06:32:36;;;;;;;5.88;3.10;;;20.60;75.10;;;;;;5036138;28;20037;-84
2021/06/22 06:35:02;;;;;;;7.45;2.55;;;20.50;75.90;;;;;;5034973;28;20025;-83
2021/06/22 06:37:28;;;;;;;5.80;2.40;;;20.30;76.10;;;;;;5035977;28;20025;-81
2021/06/22 06:39:54;;;;;;;4.32;2.35;;;20.00;76.90;;;;;;5035934;28;20064;-83
2021/06/22 06:42:19;;;;;;;10.23;3.10;;;19.80;78.00;;;;;;5033228;28;20037;-82
2021/06/22 06:44:45;;;;;;;6.40;2.72;;;19.80;78.90;;;;;;5018647;28;20355;-82
2021/06/22 06:47:10;;;;;;;5.57;2.75;;;19.90;78.00;;;;;;5014871;28;20026;-81
2021/06/22 06:49:36;;;;;;;6.65;1.95;;;19.90;77.60;;;;;;5015971;28;20034;-86
2021/06/22 06:52:03;;;;;;;5.95;1.92;;;19.90;77.30;;;;;;5014825;28;20042;-82
2021/06/22 06:54:29;;;;;;;6.07;1.80;;;19.90;76.50;;;;;;5014522;28;20022;-81
2021/06/22 06:56:55;;;;;;;6.03;1.77;;;19.90;76.70;;;;;;5015522;28;20458;-82
2021/06/22 06:59:21;;;;;;;4.75;1.70;;;19.80;74.10;;;;;;5014826;28;20030;-80
2021/06/22 07:01:46;;;;;;;3.80;1.67;;;19.50;76.00;;;;;;5031041;28;20028;-80
2021/06/22 07:04:12;;;;;;;9.32;1.55;;;19.40;75.90;;;;;;5031423;28;20025;-84
2021/06/22 07:06:38;;;;;;;7.30;2.80;;;19.30;76.70;;;;;;5016003;28;20022;-84
2021/06/22 07:09:04;;;;;;;6.63;1.75;;;19.30;75.50;;;;;;5015316;28;20026;-81
2021/06/22 07:11:29;;;;;;;2.83;1.45;;;19.30;76.00;;;;;;5014423;28;20083;-84
2021/06/22 07:13:56;;;;;;;2.50;1.13;;;19.30;76.00;;;;;;5015685;28;20101;-81
2021/06/22 07:16:21;;;;;;;4.63;1.50;;;19.40;75.90;;;;;;5015927;28;20022;-87
2021/06/22 07:18:47;;;;;;;4.10;1.67;;;19.60;76.20;;;;;;5015672;28;20030;-87
2021/06/22 07:21:13;;;;;;;5.10;1.30;;;19.80;76.00;;;;;;5016455;28;20025;-88
2021/06/22 07:23:39;;;;;;;6.45;1.63;;;20.00;75.50;;;;;;5016855;28;20028;-84
2021/06/22 07:26:05;;;;;;;4.60;1.75;;;20.30;74.70;;;;;;5015419;28;20057;-90
2021/06/22 07:28:30;;;;;;;29.80;3.50;;;20.50;74.30;;;;;;5015520;28;20481;-87
2021/06/22 07:30:56;;;;;;;11.38;2.72;;;20.70;73.70;;;;;;5016223;28;20109;-85
2021/06/22 07:33:21;;;;;;;7.95;1.65;;;20.80;72.20;;;;;;5014457;28;20433;-87
2021/06/22 07:35:47;;;;;;;3.53;1.45;;;20.90;70.10;;;;;;5015393;28;20028;-86
2021/06/22 07:38:13;;;;;;;4.20;1.65;;;21.00;69.50;;;;;;5015239;28;20486;-85
2021/06/22 07:40:39;;;;;;;3.40;1.35;;;21.10;69.60;;;;;;5013979;28;20111;-85
2021/06/22 07:43:05;;;;;;;3.83;1.55;;;21.30;69.80;;;;;;5014180;28;20051;-85
2021/06/22 07:45:31;;;;;;;7.53;1.45;;;21.40;69.40;;;;;;5013684;28;20470;-85
2021/06/22 07:47:56;;;;;;;3.45;1.50;;;21.40;68.90;;;;;;5014136;28;20030;-86
2021/06/22 07:50:24;;;;;;;2.08;1.63;;;21.50;68.80;;;;;;5015047;28;20037;-85
2021/06/22 07:52:50;;;;;;;8.27;2.17;;;21.50;67.00;;;;;;5013275;28;20115;-85
2021/06/22 07:55:15;;;;;;;8.02;1.70;;;21.40;68.20;;;;;;5014938;28;20025;-85
2021/06/22 07:57:47;;;;;;;5.65;1.40;;;21.50;67.90;;;;;;5014537;28;20034;-85
2021/06/22 08:02:56;;;;;;;5.00;1.65;;;21.60;67.70;;;;;;5015011;28;20060;-86
2021/06/22 08:05:22;;;;;;;3.25;1.63;;;21.60;67.70;;;;;;5013530;28;20030;-86
2021/06/22 08:07:48;;;;;;;4.53;1.67;;;21.80;67.50;;;;;;5012733;28;20124;-86
2021/06/22 08:10:14;;;;;;;3.85;1.38;;;21.60;67.40;;;;;;5013579;28;20045;-85
2021/06/22 08:12:39;;;;;;;6.22;1.42;;;21.60;67.30;;;;;;5030127;28;20041;-85
2021/06/22 08:15:05;;;;;;;4.22;2.00;;;21.60;66.90;;;;;;5013440;28;20030;-85
2021/06/22 08:17:31;;;;;;;4.85;1.23;;;21.40;68.10;;;;;;5014304;28;20025;-85
2021/06/22 08:19:57;;;;;;;4.70;1.42;;;21.30;68.40;;;;;;5013802;28;20026;-85
2021/06/22 08:22:22;;;;;;;2.22;1.30;;;21.10;69.10;;;;;;5013369;28;20072;-85
2021/06/22 08:24:49;;;;;;;1.90;1.20;;;21.20;69.30;;;;;;5013405;28;20489;-85
2021/06/22 08:27:14;;;;;;;3.58;1.52;;;21.30;68.90;;;;;;5013396;28;20033;-87
2021/06/22 08:29:40;;;;;;;3.95;1.73;;;21.40;68.40;;;;;;5014215;28;20026;-90
2021/06/22 08:32:06;;;;;;;12.57;1.20;;;21.40;68.60;;;;;;5014340;28;20104;-88
2021/06/22 08:34:31;;;;;;;2.35;0.88;;;21.40;68.70;;;;;;5014580;28;20044;-89
2021/06/22 08:36:57;;;;;;;6.63;1.23;;;21.30;68.80;;;;;;5015757;28;20033;-87
2021/06/22 08:39:23;;;;;;;2.67;1.20;;;21.10;68.70;;;;;;5014096;28;20038;-88
2021/06/22 08:41:49;;;;;;;1.58;1.23;;;21.10;69.50;;;;;;5015513;28;20026;-88
2021/06/22 08:44:19;;;;;;;1.92;0.95;;;21.10;68.60;;;;;;5015840;28;20058;-89
2021/06/22 08:46:45;;;;;;;2.20;0.90;;;21.20;68.40;;;;;;5015109;28;20048;-91
2021/06/22 08:49:13;;;;;;;2.60;0.82;;;21.20;68.20;;;;;;5015398;28;20033;-89
2021/06/22 08:51:40;;;;;;;2.38;1.48;;;21.20;67.60;;;;;;5015298;28;20030;-87
2021/06/22 08:54:07;;;;;;;2.65;1.23;;;21.10;68.40;;;;;;5014764;28;20026;-90
2021/06/22 08:56:32;;;;;;;5.35;1.20;;;21.20;68.40;;;;;;5013100;28;20490;-86
2021/06/22 08:58:58;;;;;;;2.60;1.52;;;21.30;68.90;;;;;;5014629;28;20036;-88
2021/06/22 09:01:24;;;;;;;3.40;1.52;;;21.40;70.10;;;;;;5014215;28;20490;-88
2021/06/22 09:03:49;;;;;;;5.28;1.17;;;21.30;69.60;;;;;;5018377;28;20022;-89
2021/06/22 09:06:15;;;;;;;4.57;1.48;;;21.10;70.20;;;;;;5030070;28;20030;-87
2021/06/22 09:08:52;;;;;;;3.08;1.73;;;21.00;69.50;;;;;;5014513;28;20462;-89
2021/06/22 09:11:18;;;;;;;1.98;1.42;;;20.90;70.10;;;;;;5013770;28;20026;-87
2021/06/22 09:13:57;;;;;;;2.90;1.27;;;20.80;70.90;;;;;;5014009;28;20030;-87
2021/06/22 09:16:23;;;;;;;7.68;1.65;;;20.80;70.40;;;;;;5014280;28;20072;-87
2021/06/22 09:18:49;;;;;;;5.22;1.70;;;21.00;70.00;;;;;;5012737;28;20026;-89
2021/06/22 09:21:22;;;;;;;2.38;1.27;;;21.10;69.40;;;;;;5014342;28;20022;-86
2021/06/22 09:23:50;;;;;;;3.95;1.70;;;21.20;70.10;;;;;;5014736;28;20061;-84
2021/06/22 09:26:23;;;;;;;2.67;1.52;;;21.50;68.40;;;;;;5015851;28;20026;-84
2021/06/22 09:28:50;;;;;;;3.22;1.20;;;21.90;67.50;;;;;;5011515;28;20103;-83
2021/06/22 09:31:18;;;;;;;1.67;1.30;;;22.00;65.80;;;;;;5013147;28;20034;-84
2021/06/22 09:33:54;;;;;;;3.00;1.35;;;22.10;65.20;;;;;;5013024;28;20018;-84
2021/06/22 09:36:28;;;;;;;3.95;1.55;;;22.20;65.10;;;;;;5013136;28;20148;-83
2021/06/22 09:38:55;;;;;;;3.38;1.65;;;22.00;64.20;;;;;;5011480;28;20022;-83
2021/06/22 09:41:33;;;;;;;2.40;1.23;;;21.90;66.40;;;;;;5012912;28;20068;-83
2021/06/22 09:44:13;;;;;;;5.72;1.73;;;21.60;66.20;;;;;;5028153;28;20040;-84
2021/06/22 09:46:44;;;;;;;4.50;1.50;;;21.40;66.50;;;;;;5012996;28;20033;-82
2021/06/22 09:49:31;;;;;;;3.05;1.10;;;21.40;67.20;;;;;;5013015;28;20014;-82
2021/06/22 09:52:01;;;;;;;2.88;1.30;;;21.40;66.80;;;;;;5010637;28;20493;-83
2021/06/22 09:54:29;;;;;;;3.72;1.00;;;21.60;66.10;;;;;;5012891;28;20022;-83
2021/06/22 09:56:55;;;;;;;2.03;1.40;;;21.80;66.70;;;;;;5027963;28;20114;-83
2021/06/22 09:59:22;;;;;;;3.15;1.20;;;22.00;64.90;;;;;;5011155;28;20045;-84
2021/06/22 10:01:48;;;;;;;4.07;1.30;;;22.00;63.00;;;;;;5012627;28;20105;-83
2021/06/22 10:04:21;;;;;;;3.40;1.23;;;22.00;62.50;;;;;;5012661;28;20060;-83
2021/06/22 10:06:52;;;;;;;3.60;1.10;;;21.90;62.80;;;;;;5011060;28;20030;-83
2021/06/22 10:09:34;;;;;;;2.50;1.52;;;21.60;63.80;;;;;;5012607;28;20014;-82
2021/06/22 10:12:14;;;;;;;1.88;1.20;;;21.30;65.60;;;;;;5011209;28;20065;-83
2021/06/22 10:14:40;;;;;;;2.10;1.02;;;21.00;63.80;;;;;;5012669;28;20025;-83
2021/06/22 10:17:09;;;;;;;1.63;1.30;;;20.90;63.20;;;;;;5012598;28;20080;-84
2021/06/22 10:19:36;;;;;;;1.92;1.23;;;20.80;63.60;;;;;;5010860;28;20117;-83
2021/06/22 10:22:05;;;;;;;2.42;0.93;;;20.80;64.70;;;;;;5027637;28;20022;-83
2021/06/22 10:24:32;;;;;;;1.33;0.88;;;21.10;62.90;;;;;;5010989;28;20386;-85
2021/06/22 10:26:59;;;;;;;2.85;1.00;;;21.20;61.90;;;;;;5012499;28;20036;-81
2021/06/22 10:29:26;;;;;;;2.55;0.80;;;21.60;61.60;;;;;;5012415;28;20033;-81
2021/06/22 10:31:53;;;;;;;2.65;1.15;;;21.90;60.40;;;;;;5021368;28;20040;-89
2021/06/22 10:34:19;;;;;;;2.00;1.13;;;22.20;60.70;;;;;;5031230;28;20094;-86
2021/06/22 10:37:06;;;;;;;3.85;1.35;;;22.10;60.60;;;;;;5020391;28;20233;-86
2021/06/22 10:39:52;;;;;;;1.55;1.00;;;21.20;61.50;;;;;;5017020;28;20045;-86
2021/06/22 10:42:19;;;;;;;2.97;1.10;;;20.70;63.30;;;;;;5016556;28;20053;-84
2021/06/22 10:44:51;;;;;;;1.17;0.70;;;20.40;65.50;;;;;;5016505;28;20508;-86
2021/06/22 10:47:18;;;;;;;3.13;1.00;;;20.70;65.20;;;;;;5016308;28;20466;-85
2021/06/22 10:50:17;;;;;;;3.10;1.35;;;20.70;64.70;;;;;;5016241;28;20030;-85
2021/06/22 10:52:45;;;;;;;2.15;0.90;;;20.90;64.40;;;;;;5016697;28;20038;-85
2021/06/22 10:55:22;;;;;;;1.35;1.20;;;20.70;63.70;;;;;;5016377;28;20064;-85
2021/06/22 10:58:00;;;;;;;1.73;1.02;;;20.60;64.70;;;;;;5017000;28;20022;-88
2021/06/22 11:00:38;;;;;;;4.05;1.20;;;20.40;65.80;;;;;;5015685;28;20033;-89
2021/06/22 11:03:18;;;;;;;3.25;1.10;;;20.40;65.20;;;;;;5015954;28;20459;-85
2021/06/22 11:05:44;;;;;;;2.50;1.30;;;20.30;66.50;;;;;;5019402;28;20026;-89
2021/06/22 11:08:16;;;;;;;2.92;1.20;;;20.10;67.00;;;;;;5018645;28;20022;-87
2021/06/22 11:11:10;;;;;;;3.15;1.23;;;20.00;68.00;;;;;;5019779;28;20054;-86
2021/06/22 11:13:47;;;;;;;2.78;1.00;;;20.10;66.90;;;;;;5016011;28;20030;-85
2021/06/22 11:16:19;;;;;;;4.07;1.23;;;20.20;66.40;;;;;;5017197;28;20389;-86
2021/06/22 11:18:53;;;;;;;4.15;1.20;;;20.20;66.20;;;;;;5016863;28;20393;-85
2021/06/22 11:21:27;;;;;;;2.38;1.40;;;20.20;67.10;;;;;;5018881;28;20033;-88
2021/06/22 11:24:00;;;;;;;1.90;1.25;;;20.20;66.80;;;;;;5016507;28;20018;-84
2021/06/22 11:26:27;;;;;;;4.30;1.10;;;20.20;66.20;;;;;;5016844;28;20018;-88
2021/06/22 11:29:03;;;;;;;1.50;1.00;;;19.80;68.40;;;;;;5016397;28;20378;-86
2021/06/22 11:31:36;;;;;;;1.27;0.90;;;19.60;69.30;;;;;;5015005;28;20062;-86
2021/06/22 11:34:14;;;;;;;0.98;0.90;;;19.60;69.70;;;;;;5031214;28;20022;-85
2021/06/22 11:36:42;;;;;;;1.23;0.80;;;19.50;69.70;;;;;;5017154;28;20049;-86
2021/06/22 11:39:16;;;;;;;1.98;0.80;;;19.30;70.30;;;;;;5017271;28;20025;-90
2021/06/22 11:42:02;;;;;;;1.92;0.95;;;19.20;69.80;;;;;;5018536;28;20065;-86
2021/06/22 11:44:28;;;;;;;1.08;0.60;;;19.50;70.20;;;;;;5015629;28;20061;-77
2021/06/22 11:46:53;;;;;;;3.70;1.17;;;19.70;70.20;;;;;;5014706;28;20034;-77
2021/06/22 11:49:19;;;;;;;4.38;1.27;;;20.00;71.70;;;;;;5014600;28;20029;-77
2021/06/22 11:51:48;;;;;;;4.95;1.05;;;20.30;71.20;;;;;;5014660;28;20038;-77
2021/06/22 11:54:18;;;;;;;2.55;1.20;;;20.80;69.40;;;;;;5014689;28;20026;-77
2021/06/22 11:56:45;;;;;;;2.03;0.70;;;21.30;69.50;;;;;;5014713;28;20034;-76
2021/06/22 11:59:11;;;;;;;2.28;1.05;;;21.90;70.00;;;;;;5014598;28;20478;-77
2021/06/22 12:01:43;;;;;;;0.85;0.60;;;22.30;65.80;;;;;;5013342;28;20032;-77
2021/06/22 12:04:09;;;;;;;1.13;0.70;;;22.50;65.90;;;;;;5014541;28;20026;-76
2021/06/22 12:06:34;;;;;;;0.95;0.70;;;22.70;62.30;;;;;;5014361;28;20033;-78
2021/06/22 12:09:00;;;;;;;0.90;0.70;;;22.70;61.40;;;;;;5014247;28;20022;-78
2021/06/22 12:11:31;;;;;;;1.35;0.60;;;22.80;62.60;;;;;;5014225;28;20038;-77
2021/06/22 12:13:56;;;;;;;1.73;0.60;;;22.70;63.60;;;;;;5014452;28;20022;-76
2021/06/22 12:16:25;;;;;;;1.48;0.80;;;22.90;60.60;;;;;;5014349;28;20073;-76
2021/06/22 12:18:53;;;;;;;2.53;0.70;;;23.10;60.90;;;;;;5013837;28;20025;-79
2021/06/22 12:21:20;;;;;;;2.15;0.65;;;23.40;58.50;;;;;;5014277;28;20022;-78
2021/06/22 12:23:45;;;;;;;2.10;0.70;;;23.20;58.70;;;;;;5013276;28;20474;-78
2021/06/22 12:26:16;;;;;;;4.80;0.98;;;23.40;59.90;;;;;;5014292;28;20104;-78
2021/06/22 12:28:42;;;;;;;1.95;0.70;;;23.90;59.90;;;;;;5012729;28;20018;-78
2021/06/22 12:31:09;;;;;;;2.13;0.60;;;24.20;57.80;;;;;;5012416;28;20057;-78
2021/06/22 12:33:40;;;;;;;2.20;0.70;;;24.30;54.20;;;;;;5013363;28;20026;-79
2021/06/22 12:36:09;;;;;;;2.10;0.60;;;24.60;52.30;;;;;;5014151;28;20022;-80
2021/06/22 12:38:38;;;;;;;1.02;0.70;;;24.70;53.50;;;;;;5013784;28;20053;-79
2021/06/22 12:41:07;;;;;;;2.00;0.70;;;24.90;53.30;;;;;;5013631;28;20406;-79
2021/06/22 12:43:43;;;;;;;2.35;0.70;;;24.60;52.80;;;;;;5013622;28;20120;-79
2021/06/22 12:46:10;;;;;;;0.93;0.50;;;24.30;50.50;;;;;;5013752;28;20029;-78
2021/06/22 12:48:36;;;;;;;0.77;0.52;;;23.80;51.50;;;;;;5013585;28;20105;-79